sensor_id;sensor_type;location;lat;lon;timestamp;pressure;altitude;pressure_sealevel;temperature;humidity
20971;BME280;10644;48.834;10.088;2023-02-10T00:00:09;98483.03;;;2.52;45.24
20971;BME280;10644;48.834;10.088;2023-02-10T00:02:54;98473.78;;;2.57;45.33
20971;BME280;10644;48.834;10.088;2023-02-10T00:05:25;98490.69;;;2.64;45.37
20971;BME280;10644;48.834;10.088;2023-02-10T00:07:55;98476.38;;;2.72;45.44
20971;BME280;10644;48.834;10.088;2023-02-10T00:10:36;98479.78;;;2.74;45.25
20971;BME280;10644;48.834;10.088;2023-02-10T00:13:18;98477.25;;;2.74;45.34
20971;BME280;10644;48.834;10.088;2023-02-10T00:16:01;98486.50;;;2.69;45.32
20971;BME280;10644;48.834;10.088;2023-02-10T00:18:30;98495.00;;;2.80;45.49
20971;BME280;10644;48.834;10.088;2023-02-10T00:20:56;98489.06;;;2.77;45.23
20971;BME280;10644;48.834;10.088;2023-02-10T00:23:38;98478.13;;;2.82;44.80
20971;BME280;10644;48.834;10.088;2023-02-10T00:26:16;98488.28;;;2.87;44.79
20971;BME280;10644;48.834;10.088;2023-02-10T00:28:44;98476.34;;;2.63;45.25
20971;BME280;10644;48.834;10.088;2023-02-10T00:31:15;98481.38;;;2.57;45.51
20971;BME280;10644;48.834;10.088;2023-02-10T00:33:55;98485.53;;;2.48;46.65
20971;BME280;10644;48.834;10.088;2023-02-10T00:39:42;98484.84;;;2.74;45.35
20971;BME280;10644;48.834;10.088;2023-02-10T00:42:21;98474.72;;;2.74;44.95
20971;BME280;10644;48.834;10.088;2023-02-10T00:44:56;98480.63;;;2.75;44.85
20971;BME280;10644;48.834;10.088;2023-02-10T00:47:23;98467.97;;;2.67;44.96
20971;BME280;10644;48.834;10.088;2023-02-10T00:50:24;98483.97;;;2.74;44.62
20971;BME280;10644;48.834;10.088;2023-02-10T00:52:55;98483.16;;;2.73;45.17
20971;BME280;10644;48.834;10.088;2023-02-10T00:55:39;98482.28;;;2.71;44.48
20971;BME280;10644;48.834;10.088;2023-02-10T00:58:22;98482.31;;;2.74;44.65
20971;BME280;10644;48.834;10.088;2023-02-10T01:00:59;98485.63;;;2.66;45.09
20971;BME280;10644;48.834;10.088;2023-02-10T01:03:25;98485.50;;;2.49;45.92
20971;BME280;10644;48.834;10.088;2023-02-10T01:06:21;98495.66;;;2.51;45.60
20971;BME280;10644;48.834;10.088;2023-02-10T01:08:47;98496.38;;;2.36;46.40
20971;BME280;10644;48.834;10.088;2023-02-10T01:11:29;98496.28;;;2.20;46.93
20971;BME280;10644;48.834;10.088;2023-02-10T01:14:03;98494.63;;;2.26;46.12
20971;BME280;10644;48.834;10.088;2023-02-10T01:16:30;98500.56;;;2.28;45.76
20971;BME280;10644;48.834;10.088;2023-02-10T01:19:04;98503.09;;;2.31;45.50
20971;BME280;10644;48.834;10.088;2023-02-10T01:21:31;98495.47;;;2.27;45.54
20971;BME280;10644;48.834;10.088;2023-02-10T01:23:58;98506.44;;;2.30;45.46
20971;BME280;10644;48.834;10.088;2023-02-10T01:26:33;98511.47;;;2.27;45.13
20971;BME280;10644;48.834;10.088;2023-02-10T01:28:59;98501.31;;;2.18;45.64
20971;BME280;10644;48.834;10.088;2023-02-10T01:31:43;98503.84;;;2.20;45.00
20971;BME280;10644;48.834;10.088;2023-02-10T01:34:30;98500.84;;;1.67;46.59
20971;BME280;10644;48.834;10.088;2023-02-10T01:37:13;98490.63;;;1.55;46.38
20971;BME280;10644;48.834;10.088;2023-02-10T01:40:13;98494.97;;;1.68;46.38
20971;BME280;10644;48.834;10.088;2023-02-10T01:42:39;98484.13;;;1.78;46.65
20971;BME280;10644;48.834;10.088;2023-02-10T01:45:25;98491.81;;;1.92;46.03
20971;BME280;10644;48.834;10.088;2023-02-10T01:48:03;98507.91;;;2.01;45.80
20971;BME280;10644;48.834;10.088;2023-02-10T01:54:14;98496.16;;;2.09;45.39
20971;BME280;10644;48.834;10.088;2023-02-10T01:57:01;98496.16;;;2.09;45.24
20971;BME280;10644;48.834;10.088;2023-02-10T01:59:31;98492.69;;;1.95;46.35
20971;BME280;10644;48.834;10.088;2023-02-10T02:02:04;98488.47;;;1.93;46.29
20971;BME280;10644;48.834;10.088;2023-02-10T02:04:40;98485.97;;;1.97;45.98
20971;BME280;10644;48.834;10.088;2023-02-10T02:07:21;98490.19;;;2.00;46.03
20971;BME280;10644;48.834;10.088;2023-02-10T02:09:52;98496.09;;;2.02;46.24
20971;BME280;10644;48.834;10.088;2023-02-10T02:37:33;98495.94;;;1.84;45.36
20971;BME280;10644;48.834;10.088;2023-02-10T02:40:11;98498.25;;;1.61;45.80
20971;BME280;10644;48.834;10.088;2023-02-10T02:42:39;98504.09;;;1.57;45.88
20971;BME280;10644;48.834;10.088;2023-02-10T02:45:19;98491.38;;;1.48;46.03
20971;BME280;10644;48.834;10.088;2023-02-10T02:57:37;98520.72;;;1.40;45.58
20971;BME280;10644;48.834;10.088;2023-02-10T03:00:38;98518.31;;;1.48;46.09
20971;BME280;10644;48.834;10.088;2023-02-10T03:03:08;98525.84;;;1.46;46.04
20971;BME280;10644;48.834;10.088;2023-02-10T03:05:36;98526.72;;;1.47;45.71
20971;BME280;10644;48.834;10.088;2023-02-10T03:08:03;98529.28;;;1.51;45.85
20971;BME280;10644;48.834;10.088;2023-02-10T03:10:31;98534.34;;;1.54;46.03
20971;BME280;10644;48.834;10.088;2023-02-10T03:12:58;98536.88;;;1.56;45.39
20971;BME280;10644;48.834;10.088;2023-02-10T03:15:26;98548.59;;;1.48;45.29
20971;BME280;10644;48.834;10.088;2023-02-10T03:17:56;98540.41;;;0.98;46.66
20971;BME280;10644;48.834;10.088;2023-02-10T03:20:23;98547.94;;;0.97;46.49
20971;BME280;10644;48.834;10.088;2023-02-10T03:22:53;98550.38;;;0.92;46.53
20971;BME280;10644;48.834;10.088;2023-02-10T03:25:44;98550.50;;;1.00;46.29
20971;BME280;10644;48.834;10.088;2023-02-10T03:28:19;98548.13;;;1.10;46.51
20971;BME280;10644;48.834;10.088;2023-02-10T03:30:51;98547.38;;;1.20;46.08
20971;BME280;10644;48.834;10.088;2023-02-10T03:33:19;98544.09;;;1.24;46.40
20971;BME280;10644;48.834;10.088;2023-02-10T03:35:52;98546.66;;;1.29;46.40
20971;BME280;10644;48.834;10.088;2023-02-10T03:38:27;98551.78;;;1.33;45.76
20971;BME280;10644;48.834;10.088;2023-02-10T03:40:57;98544.16;;;1.30;46.14
20971;BME280;10644;48.834;10.088;2023-02-10T03:43:27;98544.25;;;1.38;45.90
20971;BME280;10644;48.834;10.088;2023-02-10T03:46:04;98542.66;;;1.44;45.72
20971;BME280;10644;48.834;10.088;2023-02-10T03:48:36;98555.28;;;1.44;46.30
20971;BME280;10644;48.834;10.088;2023-02-10T03:51:13;98549.31;;;1.39;46.03
20971;BME280;10644;48.834;10.088;2023-02-10T03:53:47;98545.91;;;1.37;45.67
20971;BME280;10644;48.834;10.088;2023-02-10T03:56:18;98547.66;;;1.41;45.43
20971;BME280;10644;48.834;10.088;2023-02-10T03:59:03;98554.41;;;1.44;45.68
20971;BME280;10644;48.834;10.088;2023-02-10T04:01:49;98551.03;;;1.42;45.34
20971;BME280;10644;48.834;10.088;2023-02-10T04:04:25;98541.75;;;1.39;45.48
20971;BME280;10644;48.834;10.088;2023-02-10T04:07:08;98544.22;;;1.36;45.27
20971;BME280;10644;48.834;10.088;2023-02-10T04:09:51;98546.75;;;1.36;45.35
20971;BME280;10644;48.834;10.088;2023-02-10T04:12:19;98554.09;;;1.15;46.50
20971;BME280;10644;48.834;10.088;2023-02-10T04:14:47;98562.53;;;1.20;46.47
20971;BME280;10644;48.834;10.088;2023-02-10T04:17:15;98559.16;;;1.18;46.50
20971;BME280;10644;48.834;10.088;2023-02-10T04:19:41;98559.16;;;1.18;46.79
20971;BME280;10644;48.834;10.088;2023-02-10T04:22:29;98560.06;;;1.23;46.38
20971;BME280;10644;48.834;10.088;2023-02-10T04:25:05;98554.97;;;1.22;45.97
20971;BME280;10644;48.834;10.088;2023-02-10T04:27:58;98567.56;;;1.20;45.93
20971;BME280;10644;48.834;10.088;2023-02-10T04:30:23;98567.56;;;1.20;46.43
20971;BME280;10644;48.834;10.088;2023-02-10T04:32:58;98561.69;;;1.20;46.06
20971;BME280;10644;48.834;10.088;2023-02-10T04:35:33;98562.59;;;1.26;46.17
20971;BME280;10644;48.834;10.088;2023-02-10T04:38:00;98554.16;;;1.23;46.20
20971;BME280;10644;48.834;10.088;2023-02-10T04:40:31;98559.25;;;1.26;45.97
20971;BME280;10644;48.834;10.088;2023-02-10T04:43:02;98562.59;;;1.23;45.63
20971;BME280;10644;48.834;10.088;2023-02-10T04:45:27;98564.28;;;1.26;45.86
20971;BME280;10644;48.834;10.088;2023-02-10T04:48:12;98568.63;;;1.36;46.05
20971;BME280;10644;48.834;10.088;2023-02-10T04:50:48;98573.66;;;1.34;46.06
20971;BME280;10644;48.834;10.088;2023-02-10T04:53:14;98577.91;;;1.38;46.20
20971;BME280;10644;48.834;10.088;2023-02-10T04:55:45;98576.19;;;1.34;45.99
20971;BME280;10644;48.834;10.088;2023-02-10T04:58:17;98576.19;;;1.34;45.97
20971;BME280;10644;48.834;10.088;2023-02-10T05:00:46;98576.13;;;1.31;46.28
20971;BME280;10644;48.834;10.088;2023-02-10T05:03:39;98579.59;;;1.39;45.94
20971;BME280;10644;48.834;10.088;2023-02-10T05:06:20;98581.44;;;0.90;46.65
20971;BME280;10644;48.834;10.088;2023-02-10T05:08:51;98581.31;;;0.81;46.58
20971;BME280;10644;48.834;10.088;2023-02-10T05:11:44;98590.66;;;0.88;46.59
20971;BME280;10644;48.834;10.088;2023-02-10T05:14:13;98596.59;;;0.91;46.72
20971;BME280;10644;48.834;10.088;2023-02-10T05:16:56;98590.72;;;0.92;46.05
20971;BME280;10644;48.834;10.088;2023-02-10T05:19:30;98597.59;;;1.02;46.25
20971;BME280;10644;48.834;10.088;2023-02-10T05:21:57;98598.41;;;1.00;46.44
20971;BME280;10644;48.834;10.088;2023-02-10T05:24:41;98588.53;;;0.58;46.67
20971;BME280;10644;48.834;10.088;2023-02-10T05:27:11;98615.63;;;0.71;47.28
20971;BME280;10644;48.834;10.088;2023-02-10T05:29:38;98618.25;;;0.77;46.75
20971;BME280;10644;48.834;10.088;2023-02-10T05:32:26;98616.75;;;0.90;46.42
20971;BME280;10644;48.834;10.088;2023-02-10T05:35:03;98611.78;;;0.94;46.79
20971;BME280;10644;48.834;10.088;2023-02-10T05:37:38;98606.81;;;0.99;46.44
20971;BME280;10644;48.834;10.088;2023-02-10T05:40:07;98608.53;;;1.01;46.61
20971;BME280;10644;48.834;10.088;2023-02-10T05:42:44;98607.66;;;0.99;46.25
20971;BME280;10644;48.834;10.088;2023-02-10T05:45:16;98625.38;;;1.04;46.52
20971;BME280;10644;48.834;10.088;2023-02-10T05:47:48;98626.97;;;0.99;46.39
20971;BME280;10644;48.834;10.088;2023-02-10T05:50:28;98627.69;;;0.90;46.19
20971;BME280;10644;48.834;10.088;2023-02-10T05:53:08;98625.13;;;0.87;46.85
20971;BME280;10644;48.834;10.088;2023-02-10T05:56:05;98630.69;;;0.68;46.79
20971;BME280;10644;48.834;10.088;2023-02-10T05:58:45;98625.38;;;0.50;47.04
20971;BME280;10644;48.834;10.088;2023-02-10T06:04:43;98619.69;;;0.62;46.88
20971;BME280;10644;48.834;10.088;2023-02-10T06:07:10;98619.53;;;0.53;48.38
20971;BME280;10644;48.834;10.088;2023-02-10T06:09:53;98632.47;;;0.75;47.38
20971;BME280;10644;48.834;10.088;2023-02-10T06:12:19;98626.72;;;0.82;47.39
20971;BME280;10644;48.834;10.088;2023-02-10T06:15:09;98636.09;;;0.89;46.66
20971;BME280;10644;48.834;10.088;2023-02-10T06:17:40;98636.94;;;0.91;46.81
20971;BME280;10644;48.834;10.088;2023-02-10T06:20:07;98637.84;;;0.95;47.24
20971;BME280;10644;48.834;10.088;2023-02-10T06:22:49;98644.66;;;1.00;46.97
20971;BME280;10644;48.834;10.088;2023-02-10T06:25:15;98634.34;;;0.87;47.50
20971;BME280;10644;48.834;10.088;2023-02-10T06:27:47;98641.75;;;0.75;47.89
20971;BME280;10644;48.834;10.088;2023-02-10T06:30:31;98639.19;;;0.73;47.31
20971;BME280;10644;48.834;10.088;2023-02-10T06:33:12;98638.03;;;0.55;47.62
20971;BME280;10644;48.834;10.088;2023-02-10T06:35:46;98642.44;;;0.66;47.08
20971;BME280;10644;48.834;10.088;2023-02-10T06:38:11;98650.88;;;0.68;47.08
20971;BME280;10644;48.834;10.088;2023-02-10T06:40:38;98661.13;;;0.80;47.05
20971;BME280;10644;48.834;10.088;2023-02-10T06:43:09;98654.47;;;0.82;47.33
20971;BME280;10644;48.834;10.088;2023-02-10T06:45:39;98662.16;;;0.91;47.26
20971;BME280;10644;48.834;10.088;2023-02-10T06:48:06;98669.63;;;0.85;50.23
20971;BME280;10644;48.834;10.088;2023-02-10T06:50:34;98667.28;;;0.96;48.60
20971;BME280;10644;48.834;10.088;2023-02-10T06:53:01;98673.19;;;0.98;47.89
20971;BME280;10644;48.834;10.088;2023-02-10T06:55:28;98675.53;;;0.86;47.39
20971;BME280;10644;48.834;10.088;2023-02-10T06:58:03;98682.97;;;0.78;47.66
20971;BME280;10644;48.834;10.088;2023-02-10T07:00:30;98696.34;;;0.74;47.80
20971;BME280;10644;48.834;10.088;2023-02-10T07:02:59;98693.78;;;0.73;47.65
20971;BME280;10644;48.834;10.088;2023-02-10T07:05:31;98687.84;;;0.69;47.84
20971;BME280;10644;48.834;10.088;2023-02-10T07:08:02;98693.06;;;0.78;47.53
20971;BME280;10644;48.834;10.088;2023-02-10T07:10:31;98687.91;;;0.72;49.11
20971;BME280;10644;48.834;10.088;2023-02-10T07:13:01;98691.38;;;0.80;48.41
20971;BME280;10644;48.834;10.088;2023-02-10T07:15:32;98689.03;;;0.89;47.61
20971;BME280;10644;48.834;10.088;2023-02-10T07:18:09;98700.94;;;0.98;47.35
20971;BME280;10644;48.834;10.088;2023-02-10T07:20:35;98696.03;;;1.05;47.37
20971;BME280;10644;48.834;10.088;2023-02-10T07:23:11;98686.88;;;1.13;47.77
20971;BME280;10644;48.834;10.088;2023-02-10T07:25:41;98702.97;;;1.20;47.70
20971;BME280;10644;48.834;10.088;2023-02-10T07:28:06;98691.81;;;1.04;48.12
20971;BME280;10644;48.834;10.088;2023-02-10T07:30:35;98695.28;;;1.12;47.90
20971;BME280;10644;48.834;10.088;2023-02-10T07:33:00;98692.78;;;1.14;47.72
20971;BME280;10644;48.834;10.088;2023-02-10T07:35:27;98702.06;;;1.18;47.49
20971;BME280;10644;48.834;10.088;2023-02-10T07:37:53;98710.56;;;1.21;47.39
20971;BME280;10644;48.834;10.088;2023-02-10T07:40:23;98705.53;;;1.21;47.43
20971;BME280;10644;48.834;10.088;2023-02-10T07:42:55;98707.31;;;1.28;48.04
20971;BME280;10644;48.834;10.088;2023-02-10T07:45:30;98710.84;;;1.39;49.54
20971;BME280;10644;48.834;10.088;2023-02-10T07:48:12;98721.94;;;1.50;48.30
20971;BME280;10644;48.834;10.088;2023-02-10T07:51:08;98723.66;;;1.54;48.13
20971;BME280;10644;48.834;10.088;2023-02-10T07:53:39;98725.28;;;1.51;48.08
20971;BME280;10644;48.834;10.088;2023-02-10T07:56:19;98715.13;;;1.46;48.50
20971;BME280;10644;48.834;10.088;2023-02-10T07:58:45;98717.81;;;1.55;48.75
20971;BME280;10644;48.834;10.088;2023-02-10T08:01:11;98715.34;;;1.61;50.06
20971;BME280;10644;48.834;10.088;2023-02-10T08:03:43;98711.25;;;1.69;49.73
20971;BME280;10644;48.834;10.088;2023-02-10T08:06:21;98713.16;;;1.85;49.30
20971;BME280;10644;48.834;10.088;2023-02-10T08:08:49;98717.50;;;1.95;49.15
20971;BME280;10644;48.834;10.088;2023-02-10T08:11:15;98713.38;;;2.03;48.95
20971;BME280;10644;48.834;10.088;2023-02-10T08:13:47;98709.22;;;2.08;49.26
20971;BME280;10644;48.834;10.088;2023-02-10T08:16:12;98707.63;;;2.15;49.03
20971;BME280;10644;48.834;10.088;2023-02-10T08:18:39;98706.75;;;2.14;49.47
20971;BME280;10644;48.834;10.088;2023-02-10T08:21:06;98697.44;;;2.07;50.01
20971;BME280;10644;48.834;10.088;2023-02-10T08:23:44;98696.41;;;1.93;50.37
20971;BME280;10644;48.834;10.088;2023-02-10T08:26:30;98707.09;;;1.73;51.27
20971;BME280;10644;48.834;10.088;2023-02-10T08:28:59;98703.59;;;1.63;51.82
20971;BME280;10644;48.834;10.088;2023-02-10T08:31:38;98706.88;;;1.56;52.67
20971;BME280;10644;48.834;10.088;2023-02-10T08:34:14;98702.69;;;1.58;53.01
20971;BME280;10644;48.834;10.088;2023-02-10T08:36:55;98707.31;;;1.91;51.77
20971;BME280;10644;48.834;10.088;2023-02-10T08:39:20;98711.81;;;2.14;51.92
20971;BME280;10644;48.834;10.088;2023-02-10T08:41:50;98707.75;;;2.25;52.58
20971;BME280;10644;48.834;10.088;2023-02-10T08:44:20;98722.38;;;2.53;51.86
20971;BME280;10644;48.834;10.088;2023-02-10T08:46:54;98714.97;;;2.71;51.04
20971;BME280;10644;48.834;10.088;2023-02-10T08:49:32;98712.59;;;2.91;50.74
20971;BME280;10644;48.834;10.088;2023-02-10T08:52:22;98717.94;;;3.21;50.59
20971;BME280;10644;48.834;10.088;2023-02-10T08:54:53;98720.53;;;3.34;50.61
20971;BME280;10644;48.834;10.088;2023-02-10T08:57:24;98717.28;;;3.47;50.48
20971;BME280;10644;48.834;10.088;2023-02-10T08:59:51;98717.38;;;3.61;50.53
20971;BME280;10644;48.834;10.088;2023-02-10T09:02:19;98716.63;;;3.75;50.50
20971;BME280;10644;48.834;10.088;2023-02-10T09:04:56;98725.88;;;3.73;50.78
20971;BME280;10644;48.834;10.088;2023-02-10T09:07:53;98719.09;;;3.71;50.74
20971;BME280;10644;48.834;10.088;2023-02-10T09:10:21;98710.78;;;3.93;50.92
20971;BME280;10644;48.834;10.088;2023-02-10T09:12:48;98708.34;;;4.15;51.15
20971;BME280;10644;48.834;10.088;2023-02-10T09:15:43;98705.88;;;4.44;50.30
20971;BME280;10644;48.834;10.088;2023-02-10T09:18:16;98707.63;;;4.66;50.53
20971;BME280;10644;48.834;10.088;2023-02-10T09:20:48;98705.97;;;4.90;50.24
20971;BME280;10644;48.834;10.088;2023-02-10T09:26:25;98710.25;;;5.29;49.36
20971;BME280;10644;48.834;10.088;2023-02-10T09:29:06;98695.81;;;5.46;49.37
20971;BME280;10644;48.834;10.088;2023-02-10T09:31:33;98694.94;;;5.60;48.95
20971;BME280;10644;48.834;10.088;2023-02-10T09:34:03;98690.66;;;5.79;49.05
20971;BME280;10644;48.834;10.088;2023-02-10T09:36:34;98691.50;;;5.91;48.66
20971;BME280;10644;48.834;10.088;2023-02-10T09:39:20;98705.00;;;6.08;48.83
20971;BME280;10644;48.834;10.088;2023-02-10T09:44:38;98692.84;;;6.64;48.22
20971;BME280;10644;48.834;10.088;2023-02-10T09:53:46;98701.69;;;7.33;47.69
20971;BME280;10644;48.834;10.088;2023-02-10T09:56:26;98699.81;;;7.48;46.60
20971;BME280;10644;48.834;10.088;2023-02-10T09:59:15;98702.41;;;7.45;46.62
20971;BME280;10644;48.834;10.088;2023-02-10T10:01:56;98690.44;;;7.50;46.42
20971;BME280;10644;48.834;10.088;2023-02-10T10:04:24;98705.75;;;7.50;45.76
20971;BME280;10644;48.834;10.088;2023-02-10T10:07:16;98699.03;;;7.43;44.92
20971;BME280;10644;48.834;10.088;2023-02-10T10:13:01;98702.84;;;7.88;45.45
20971;BME280;10644;48.834;10.088;2023-02-10T10:15:42;98696.03;;;7.87;44.55
20971;BME280;10644;48.834;10.088;2023-02-10T10:18:49;98712.31;;;7.75;44.90
20971;BME280;10644;48.834;10.088;2023-02-10T10:21:16;98704.56;;;7.84;44.78
20971;BME280;10644;48.834;10.088;2023-02-10T10:24:06;98702.78;;;7.94;44.54
20971;BME280;10644;48.834;10.088;2023-02-10T10:35:39;98692.63;;;8.57;42.74
20971;BME280;10644;48.834;10.088;2023-02-10T10:38:23;98693.59;;;8.49;42.49
20971;BME280;10644;48.834;10.088;2023-02-10T10:41:20;98687.41;;;8.66;42.74
20971;BME280;10644;48.834;10.088;2023-02-10T10:43:55;98675.22;;;8.83;43.06
20971;BME280;10644;48.834;10.088;2023-02-10T10:46:51;98685.31;;;8.92;42.31
20971;BME280;10644;48.834;10.088;2023-02-10T10:49:38;98681.63;;;9.08;42.66
20971;BME280;10644;48.834;10.088;2023-02-10T10:55:35;98675.72;;;9.56;41.71
20971;BME280;10644;48.834;10.088;2023-02-10T10:58:26;98676.78;;;9.90;40.92
20971;BME280;10644;48.834;10.088;2023-02-10T11:01:30;98669.81;;;9.97;41.49
20971;BME280;10644;48.834;10.088;2023-02-10T11:04:15;98668.75;;;10.08;38.77
20971;BME280;10644;48.834;10.088;2023-02-10T11:07:12;98656.56;;;10.21;39.71
20971;BME280;10644;48.834;10.088;2023-02-10T11:09:51;98659.66;;;9.92;39.10
20971;BME280;10644;48.834;10.088;2023-02-10T11:12:35;98651.91;;;9.97;39.04
20971;BME280;10644;48.834;10.088;2023-02-10T11:15:32;98656.38;;;9.87;37.82
20971;BME280;10644;48.834;10.088;2023-02-10T11:18:02;98653.19;;;9.76;38.88
20971;BME280;10644;48.834;10.088;2023-02-10T11:20:57;98656.72;;;10.13;39.61
20971;BME280;10644;48.834;10.088;2023-02-10T11:23:23;98654.78;;;10.24;37.31
20971;BME280;10644;48.834;10.088;2023-02-10T11:26:27;98652.09;;;10.30;38.55
20971;BME280;10644;48.834;10.088;2023-02-10T11:29:11;98652.72;;;10.40;38.21
20971;BME280;10644;48.834;10.088;2023-02-10T11:31:37;98647.56;;;10.79;37.52
20971;BME280;10644;48.834;10.088;2023-02-10T11:37:34;98642.31;;;10.85;36.73
20971;BME280;10644;48.834;10.088;2023-02-10T11:40:21;98630.69;;;11.06;36.91
20971;BME280;10644;48.834;10.088;2023-02-10T11:43:12;98637.34;;;11.13;36.11
20971;BME280;10644;48.834;10.088;2023-02-10T11:45:59;98637.03;;;10.91;36.67
20971;BME280;10644;48.834;10.088;2023-02-10T11:48:26;98629.94;;;11.02;36.20
20971;BME280;10644;48.834;10.088;2023-02-10T11:51:25;98628.09;;;11.07;36.00
20971;BME280;10644;48.834;10.088;2023-02-10T11:53:57;98632.69;;;11.28;36.49
20971;BME280;10644;48.834;10.088;2023-02-10T11:56:37;98627.56;;;11.28;36.09
20971;BME280;10644;48.834;10.088;2023-02-10T12:08:29;98615.47;;;11.96;34.90
20971;BME280;10644;48.834;10.088;2023-02-10T12:11:28;98617.63;;;11.80;35.89
20971;BME280;10644;48.834;10.088;2023-02-10T12:20:55;98619.50;;;11.74;35.80
20971;BME280;10644;48.834;10.088;2023-02-10T12:26:51;98616.03;;;11.76;34.90
20971;BME280;10644;48.834;10.088;2023-02-10T12:44:12;98601.56;;;12.59;34.39
20971;BME280;10644;48.834;10.088;2023-02-10T12:53:26;98596.69;;;12.50;34.49
20971;BME280;10644;48.834;10.088;2023-02-10T12:58:39;98587.78;;;12.88;33.91
20971;BME280;10644;48.834;10.088;2023-02-10T13:01:22;98577.34;;;12.92;33.64
20971;BME280;10644;48.834;10.088;2023-02-10T13:03:51;98572.31;;;13.15;33.28
20971;BME280;10644;48.834;10.088;2023-02-10T13:06:44;98583.22;;;13.46;34.54
20971;BME280;10644;48.834;10.088;2023-02-10T13:09:39;98585.06;;;12.92;33.66
20971;BME280;10644;48.834;10.088;2023-02-10T13:12:34;98588.38;;;12.97;34.12
20971;BME280;10644;48.834;10.088;2023-02-10T13:15:06;98581.75;;;13.15;33.27
20971;BME280;10644;48.834;10.088;2023-02-10T13:17:47;98586.78;;;13.19;32.63
20971;BME280;10644;48.834;10.088;2023-02-10T13:28:54;98568.72;;;13.68;33.35
20971;BME280;10644;48.834;10.088;2023-02-10T13:34:32;98559.94;;;13.73;32.92
20971;BME280;10644;48.834;10.088;2023-02-10T13:37:22;98564.25;;;13.96;33.42
20971;BME280;10644;48.834;10.088;2023-02-10T13:40:11;98564.09;;;14.23;32.77
20971;BME280;10644;48.834;10.088;2023-02-10T13:42:39;98557.50;;;14.38;31.99
20971;BME280;10644;48.834;10.088;2023-02-10T13:45:17;98565.91;;;14.43;32.14
20971;BME280;10644;48.834;10.088;2023-02-10T14:00:48;98568.63;;;13.71;33.05
20971;BME280;10644;48.834;10.088;2023-02-10T14:08:40;98564.19;;;14.20;31.65
20971;BME280;10644;48.834;10.088;2023-02-10T14:13:44;98569.88;;;13.35;32.13
20971;BME280;10644;48.834;10.088;2023-02-10T14:18:58;98573.28;;;13.37;32.64
20971;BME280;10644;48.834;10.088;2023-02-10T14:21:24;98571.03;;;13.02;32.52
20971;BME280;10644;48.834;10.088;2023-02-10T14:23:55;98579.41;;;12.83;32.94
20971;BME280;10644;48.834;10.088;2023-02-10T14:26:30;98575.94;;;12.84;34.02
20971;BME280;10644;48.834;10.088;2023-02-10T14:28:58;98575.19;;;12.80;33.43
20971;BME280;10644;48.834;10.088;2023-02-10T14:31:30;98580.00;;;12.89;32.96
20971;BME280;10644;48.834;10.088;2023-02-10T14:37:19;98580.00;;;12.89;33.32
20971;BME280;10644;48.834;10.088;2023-02-10T14:40:02;98580.00;;;12.89;33.39
20971;BME280;10644;48.834;10.088;2023-02-10T14:42:31;98580.06;;;12.62;33.15
20971;BME280;10644;48.834;10.088;2023-02-10T14:45:00;98581.34;;;12.20;33.73
20971;BME280;10644;48.834;10.088;2023-02-10T14:47:36;98576.22;;;12.20;34.10
20971;BME280;10644;48.834;10.088;2023-02-10T14:50:05;98565.63;;;12.58;33.95
20971;BME280;10644;48.834;10.088;2023-02-10T14:52:34;98566.91;;;12.45;33.50
20971;BME280;10644;48.834;10.088;2023-02-10T14:55:31;98568.09;;;12.61;33.79
20971;BME280;10644;48.834;10.088;2023-02-10T14:58:19;98563.84;;;12.60;33.01
20971;BME280;10644;48.834;10.088;2023-02-10T15:01:11;98566.03;;;12.44;33.46
20971;BME280;10644;48.834;10.088;2023-02-10T15:03:39;98565.56;;;12.04;33.28
20971;BME280;10644;48.834;10.088;2023-02-10T15:06:25;98564.97;;;12.24;33.44
20971;BME280;10644;48.834;10.088;2023-02-10T15:09:19;98566.94;;;12.43;33.64
20971;BME280;10644;48.834;10.088;2023-02-10T15:12:05;98565.56;;;12.59;33.90
20971;BME280;10644;48.834;10.088;2023-02-10T15:17:49;98571.38;;;12.38;32.85
20971;BME280;10644;48.834;10.088;2023-02-10T15:20:30;98573.13;;;12.09;32.96
20971;BME280;10644;48.834;10.088;2023-02-10T15:25:57;98575.41;;;12.19;34.38
20971;BME280;10644;48.834;10.088;2023-02-10T15:28:28;98570.91;;;12.26;33.28
20971;BME280;10644;48.834;10.088;2023-02-10T15:30:58;98576.44;;;12.41;33.36
20971;BME280;10644;48.834;10.088;2023-02-10T15:39:24;98586.34;;;12.53;33.34
20971;BME280;10644;48.834;10.088;2023-02-10T15:46:54;98579.38;;;12.29;33.59
20971;BME280;10644;48.834;10.088;2023-02-10T15:49:20;98582.03;;;12.26;33.29
20971;BME280;10644;48.834;10.088;2023-02-10T15:51:53;98579.72;;;12.17;33.26
20971;BME280;10644;48.834;10.088;2023-02-10T15:54:22;98576.59;;;12.08;33.55
20971;BME280;10644;48.834;10.088;2023-02-10T15:57:20;98575.84;;;12.04;33.77
20971;BME280;10644;48.834;10.088;2023-02-10T15:59:44;98578.59;;;11.98;33.11
20971;BME280;10644;48.834;10.088;2023-02-10T16:02:20;98574.59;;;11.88;33.73
20971;BME280;10644;48.834;10.088;2023-02-10T16:04:55;98569.09;;;11.71;34.03
20971;BME280;10644;48.834;10.088;2023-02-10T16:07:26;98583.78;;;11.66;33.79
20971;BME280;10644;48.834;10.088;2023-02-10T16:09:54;98575.44;;;11.58;34.27
20971;BME280;10644;48.834;10.088;2023-02-10T16:12:21;98579.06;;;11.51;33.86
20971;BME280;10644;48.834;10.088;2023-02-10T16:15:12;98574.09;;;11.45;34.40
20971;BME280;10644;48.834;10.088;2023-02-10T16:18:02;98569.19;;;11.36;34.78
20971;BME280;10644;48.834;10.088;2023-02-10T16:20:34;98559.50;;;11.15;35.10
20971;BME280;10644;48.834;10.088;2023-02-10T16:22:59;98567.63;;;10.99;34.92
20971;BME280;10644;48.834;10.088;2023-02-10T16:25:34;98577.44;;;10.83;35.28
20971;BME280;10644;48.834;10.088;2023-02-10T16:28:17;98577.63;;;10.74;35.41
20971;BME280;10644;48.834;10.088;2023-02-10T16:30:52;98566.69;;;10.68;35.32
20971;BME280;10644;48.834;10.088;2023-02-10T16:33:32;98577.84;;;10.65;35.14
20971;BME280;10644;48.834;10.088;2023-02-10T16:36:15;98577.25;;;10.54;35.79
20971;BME280;10644;48.834;10.088;2023-02-10T16:38:55;98582.06;;;10.31;35.98